Time;durP1;ratioP1;P1;durP2;ratioP2;P2;SDS_P1;SDS_P2;PMS_P1;PMS_P2;Temp;Humidity;BMP_temperature;BMP_pressure;BME280_temperature;BME280_humidity;BME280_pressure;Samples;Min_cycle;Max_cycle;Signal;HPM_P1;HPM_P2
2022/10/19 04:01:14;;;;;;;131.73;23.20;;;15.50;99.90;;;;;;5612521;23;20664;-65
2022/10/19 04:03:40;;;;;;;247.57;26.53;;;15.50;99.90;;;;;;4976582;28;20450;-65
2022/10/19 04:06:09;;;;;;;63.47;21.27;;;15.40;99.90;;;;;;4975543;28;20447;-66
2022/10/19 04:08:36;;;;;;;51.97;22.87;;;15.40;99.90;;;;;;4974922;28;20442;-65
2022/10/19 04:11:04;;;;;;;166.47;25.10;;;15.40;99.90;;;;;;4974811;28;20482;-65
2022/10/19 04:13:32;;;;;;;219.33;27.53;;;15.40;99.90;;;;;;4976490;28;20517;-62
2022/10/19 04:15:59;;;;;;;400.50;33.03;;;15.30;99.90;;;;;;4979758;28;20454;-63
2022/10/19 04:18:27;;;;;;;444.07;33.23;;;15.30;99.90;;;;;;4979454;28;20458;-63
2022/10/19 04:20:57;;;;;;;229.80;29.07;;;15.20;99.90;;;;;;4978699;28;20478;-63
2022/10/19 04:23:26;;;;;;;155.67;28.97;;;15.20;99.90;;;;;;4978501;28;20477;-63
2022/10/19 04:25:52;;;;;;;66.70;26.23;;;15.20;99.90;;;;;;4978433;28;20509;-63
2022/10/19 04:28:19;;;;;;;461.43;35.77;;;15.20;99.90;;;;;;4978679;28;20454;-63
2022/10/19 04:30:45;;;;;;;210.57;30.97;;;15.30;99.90;;;;;;4979348;28;20479;-63
2022/10/19 04:33:12;;;;;;;149.20;26.73;;;15.30;99.90;;;;;;4978672;28;20508;-63
2022/10/19 04:35:40;;;;;;;114.93;25.10;;;15.30;99.90;;;;;;4978467;28;20454;-63
2022/10/19 04:38:07;;;;;;;137.47;24.10;;;15.40;99.90;;;;;;4979198;28;20846;-63
2022/10/19 04:40:35;;;;;;;197.93;28.20;;;15.30;99.90;;;;;;4978643;28;20478;-63
2022/10/19 04:43:02;;;;;;;105.40;23.47;;;15.20;99.90;;;;;;4978485;28;21056;-63
2022/10/19 04:45:29;;;;;;;82.47;22.53;;;15.20;99.90;;;;;;4978214;28;20462;-64
2022/10/19 04:47:56;;;;;;;75.17;22.27;;;15.20;99.90;;;;;;4978549;28;20459;-63
2022/10/19 04:50:22;;;;;;;45.13;20.10;;;15.20;99.90;;;;;;4978308;28;20493;-63
2022/10/19 04:52:51;;;;;;;66.80;22.33;;;15.20;99.90;;;;;;4978494;28;20524;-63
2022/10/19 04:55:17;;;;;;;54.07;20.90;;;15.20;99.90;;;;;;4979062;28;21005;-63
2022/10/19 04:57:44;;;;;;;37.87;20.40;;;15.30;99.90;;;;;;4979029;28;20509;-63
2022/10/19 05:00:12;;;;;;;32.93;20.07;;;15.30;99.90;;;;;;4978583;28;21024;-64
2022/10/19 05:02:43;;;;;;;25.93;19.83;;;15.20;99.90;;;;;;4978270;28;20517;-63
2022/10/19 05:05:09;;;;;;;55.97;20.43;;;15.30;99.90;;;;;;4978637;28;20910;-63
2022/10/19 05:07:36;;;;;;;58.07;20.00;;;15.30;99.90;;;;;;4978479;28;20454;-62
2022/10/19 05:10:05;;;;;;;23.00;19.03;;;15.20;99.90;;;;;;4978343;28;20455;-63
2022/10/19 05:12:31;;;;;;;24.13;18.43;;;15.20;99.90;;;;;;4978015;28;20474;-63
2022/10/19 05:14:58;;;;;;;23.53;17.83;;;15.20;99.90;;;;;;4978074;28;20506;-64
2022/10/19 05:17:25;;;;;;;65.20;19.57;;;15.20;99.90;;;;;;4978030;28;20458;-63
2022/10/19 05:19:51;;;;;;;51.07;18.80;;;15.20;99.90;;;;;;4977399;28;20458;-62
2022/10/19 05:22:18;;;;;;;213.83;24.93;;;15.20;99.90;;;;;;4977391;28;20878;-63
2022/10/19 05:24:45;;;;;;;84.37;20.97;;;15.20;99.90;;;;;;4980390;28;20454;-64
2022/10/19 05:27:13;;;;;;;118.13;23.80;;;15.10;99.90;;;;;;4986270;28;20482;-62
2022/10/19 05:29:39;;;;;;;213.83;24.70;;;15.10;99.90;;;;;;4987181;28;20482;-63
2022/10/19 05:32:06;;;;;;;39.27;18.67;;;15.00;99.90;;;;;;4987649;28;20470;-63
2022/10/19 05:34:33;;;;;;;70.50;19.20;;;15.00;99.90;;;;;;4989641;28;20454;-64
2022/10/19 05:36:59;;;;;;;30.60;18.30;;;15.00;99.90;;;;;;4994019;28;20447;-64
2022/10/19 05:39:26;;;;;;;90.93;20.33;;;15.00;99.90;;;;;;4996033;28;20455;-63
2022/10/19 05:41:53;;;;;;;72.10;18.10;;;15.00;99.90;;;;;;4994535;28;20467;-63
2022/10/19 05:44:22;;;;;;;28.60;16.10;;;15.00;99.90;;;;;;4978782;28;20505;-63
2022/10/19 05:46:50;;;;;;;73.90;18.47;;;15.00;99.90;;;;;;4977880;28;20485;-64
2022/10/19 05:49:19;;;;;;;41.13;17.43;;;15.00;99.90;;;;;;4977757;28;20446;-62
2022/10/19 05:51:46;;;;;;;40.40;19.23;;;15.00;99.90;;;;;;4977021;28;20525;-62
2022/10/19 05:54:14;;;;;;;53.37;19.17;;;15.00;99.90;;;;;;4976805;28;20509;-63
2022/10/19 05:56:41;;;;;;;62.70;18.27;;;15.10;99.90;;;;;;4976861;28;20455;-63
2022/10/19 05:59:10;;;;;;;118.47;19.10;;;15.10;99.90;;;;;;4976497;28;20975;-62
2022/10/19 06:01:38;;;;;;;30.27;15.50;;;15.10;99.90;;;;;;4976544;28;20482;-63
2022/10/19 06:04:06;;;;;;;25.67;14.93;;;15.10;99.90;;;;;;4976484;28;21067;-62
2022/10/19 06:06:33;;;;;;;23.87;14.87;;;15.00;99.90;;;;;;4976622;28;20458;-62
2022/10/19 06:09:00;;;;;;;26.60;14.73;;;15.00;99.90;;;;;;4976781;28;20443;-62
2022/10/19 06:11:29;;;;;;;17.97;14.47;;;15.00;99.90;;;;;;4976464;28;20482;-62
2022/10/19 06:13:57;;;;;;;16.87;15.27;;;15.00;99.90;;;;;;4977137;28;20509;-63
2022/10/19 06:16:26;;;;;;;16.67;15.07;;;15.00;99.90;;;;;;4977588;28;20490;-62
2022/10/19 06:18:54;;;;;;;17.50;15.80;;;15.00;99.90;;;;;;4978638;28;20490;-66
2022/10/19 06:21:23;;;;;;;17.13;15.30;;;15.00;99.90;;;;;;4976487;28;20486;-62
2022/10/19 06:23:51;;;;;;;16.40;14.90;;;15.00;99.90;;;;;;4978029;28;20474;-64
2022/10/19 06:26:17;;;;;;;18.27;16.47;;;15.00;99.90;;;;;;4987781;28;20469;-63
2022/10/19 06:28:45;;;;;;;17.90;16.10;;;15.00;99.90;;;;;;4986934;28;20447;-62
2022/10/19 06:31:13;;;;;;;19.50;17.60;;;14.90;99.90;;;;;;4976464;28;20474;-62
2022/10/19 06:33:41;;;;;;;16.87;15.27;;;15.00;99.90;;;;;;4976075;28;20930;-63
2022/10/19 06:36:11;;;;;;;16.40;14.80;;;15.00;99.90;;;;;;4976259;28;20509;-62
2022/10/19 06:38:37;;;;;;;16.63;15.00;;;15.10;99.90;;;;;;4977269;28;20462;-62
2022/10/19 06:41:04;;;;;;;17.67;15.93;;;15.20;99.90;;;;;;4976052;28;20479;-63
2022/10/19 06:43:31;;;;;;;14.60;13.10;;;15.20;99.90;;;;;;4975951;28;20479;-63
2022/10/19 06:45:58;;;;;;;15.07;13.53;;;15.30;99.90;;;;;;4975843;28;20958;-63
2022/10/19 06:48:25;;;;;;;15.17;12.40;;;15.40;99.90;;;;;;4976116;28;20458;-63
2022/10/19 06:50:56;;;;;;;12.87;11.73;;;15.40;99.90;;;;;;4975574;28;20993;-63
2022/10/19 06:53:25;;;;;;;15.00;12.00;;;15.50;99.90;;;;;;4975922;28;20903;-63
2022/10/19 06:55:52;;;;;;;12.00;11.00;;;15.50;99.90;;;;;;4975796;28;20473;-63
2022/10/19 06:58:19;;;;;;;14.37;12.50;;;15.60;99.90;;;;;;4975822;28;20458;-63
2022/10/19 07:00:47;;;;;;;13.07;11.97;;;15.70;99.90;;;;;;4975641;28;20510;-62
2022/10/19 07:03:13;;;;;;;10.87;9.97;;;15.90;99.90;;;;;;4975535;28;20482;-63
2022/10/19 07:05:40;;;;;;;11.20;10.07;;;16.60;99.90;;;;;;4975654;28;20513;-63
2022/10/19 07:08:07;;;;;;;9.17;8.47;;;17.50;99.90;;;;;;4975600;28;20459;-62
2022/10/19 07:10:36;;;;;;;11.03;10.13;;;18.50;99.90;;;;;;4975624;28;20510;-62
2022/10/19 07:13:03;;;;;;;10.57;9.67;;;19.50;99.90;;;;;;4975668;28;20956;-62
2022/10/19 07:15:29;;;;;;;10.00;9.30;;;20.30;99.90;;;;;;4976147;28;20509;-63
2022/10/19 07:17:56;;;;;;;9.37;8.47;;;21.10;99.90;;;;;;4975271;28;20455;-63
2022/10/19 07:20:23;;;;;;;8.93;8.33;;;21.90;99.90;;;;;;4975010;28;20837;-62
2022/10/19 07:22:49;;;;;;;9.87;8.87;;;22.40;99.90;;;;;;4975837;28;20481;-62
2022/10/19 07:25:16;;;;;;;9.47;8.67;;;23.10;99.90;;;;;;4976821;28;20455;-63
2022/10/19 07:27:44;;;;;;;9.07;8.27;;;23.60;99.90;;;;;;4975489;28;20479;-62
2022/10/19 07:30:11;;;;;;;8.20;7.60;;;24.10;99.90;;;;;;4975172;28;20506;-63
2022/10/19 07:32:38;;;;;;;8.73;8.10;;;24.40;99.90;;;;;;4975423;28;20502;-63
2022/10/19 07:35:06;;;;;;;8.70;8.00;;;24.80;99.90;;;;;;4975198;28;20458;-63
2022/10/19 07:37:32;;;;;;;8.60;7.80;;;25.20;99.90;;;;;;4975202;28;20450;-62
2022/10/19 07:39:59;;;;;;;12.63;8.40;;;25.60;99.90;;;;;;4974948;28;20937;-63
2022/10/19 07:42:25;;;;;;;9.17;8.40;;;25.80;99.90;;;;;;4974598;28;20478;-63
2022/10/19 07:44:53;;;;;;;8.87;7.87;;;25.70;99.90;;;;;;4975154;28;20462;-63
2022/10/19 07:47:20;;;;;;;9.13;8.43;;;25.70;99.90;;;;;;4976361;28;20862;-62
2022/10/19 07:49:47;;;;;;;11.13;10.20;;;25.50;99.90;;;;;;4979061;28;20481;-63
2022/10/19 07:52:14;;;;;;;10.60;9.70;;;25.30;99.90;;;;;;4978982;28;20474;-62
2022/10/19 07:54:40;;;;;;;9.27;8.57;;;24.80;99.90;;;;;;4978600;28;20802;-62
2022/10/19 07:57:07;;;;;;;11.20;10.20;;;24.20;99.90;;;;;;4978617;28;20517;-62
2022/10/19 07:59:34;;;;;;;11.10;10.20;;;23.70;99.90;;;;;;4978930;28;20454;-62
2022/10/19 08:02:03;;;;;;;10.93;9.83;;;23.10;99.90;;;;;;4978553;28;20482;-62
2022/10/19 08:04:31;;;;;;;11.00;10.17;;;22.50;99.90;;;;;;4978723;28;20483;-62
2022/10/19 08:06:57;;;;;;;11.20;10.17;;;22.00;99.90;;;;;;4978425;28;20494;-63
2022/10/19 08:09:24;;;;;;;11.30;10.17;;;21.60;99.90;;;;;;4978746;28;20866;-63
2022/10/19 08:11:50;;;;;;;11.00;9.87;;;21.30;99.90;;;;;;4983927;28;20478;-63
2022/10/19 08:14:17;;;;;;;11.20;10.30;;;21.20;99.90;;;;;;4999007;28;20513;-63
2022/10/19 08:16:44;;;;;;;11.87;10.77;;;20.90;99.90;;;;;;4998535;28;20450;-63
2022/10/19 08:19:14;;;;;;;12.00;10.90;;;20.70;99.90;;;;;;4990703;28;20864;-64
2022/10/19 08:21:43;;;;;;;11.37;10.20;;;20.60;99.90;;;;;;4980159;28;20482;-64
2022/10/19 08:24:11;;;;;;;14.40;11.10;;;20.40;99.90;;;;;;4979344;28;20478;-64
2022/10/19 08:26:39;;;;;;;12.73;11.43;;;20.10;99.90;;;;;;4979023;28;20498;-63
2022/10/19 08:29:09;;;;;;;11.13;10.23;;;19.90;99.90;;;;;;4978577;28;20973;-63
2022/10/19 08:31:37;;;;;;;19.40;11.10;;;19.60;99.90;;;;;;4978658;28;20470;-63
2022/10/19 08:34:04;;;;;;;16.10;11.30;;;19.40;99.90;;;;;;4978668;28;20454;-64
2022/10/19 08:36:34;;;;;;;11.93;10.70;;;19.20;99.90;;;;;;4978333;28;20455;-62
2022/10/19 08:39:01;;;;;;;13.90;12.60;;;19.00;99.90;;;;;;4978572;28;20855;-63
2022/10/19 08:41:35;;;;;;;13.23;12.03;;;18.60;99.90;;;;;;4978846;28;20529;-63
2022/10/19 08:44:23;;;;;;;13.07;11.97;;;18.40;99.90;;;;;;4978202;28;20470;-63
2022/10/19 08:46:57;;;;;;;13.33;12.07;;;18.40;99.90;;;;;;4978665;28;20489;-62
2022/10/19 08:49:28;;;;;;;17.13;13.93;;;18.20;99.90;;;;;;4978176;28;20450;-63
2022/10/19 08:51:59;;;;;;;13.80;12.60;;;18.00;99.90;;;;;;4978316;28;20889;-63
2022/10/19 08:54:35;;;;;;;13.47;12.10;;;17.90;99.90;;;;;;4978344;28;20436;-63
2022/10/19 08:57:13;;;;;;;17.03;15.00;;;17.70;99.90;;;;;;4978092;28;20509;-62
2022/10/19 08:59:47;;;;;;;14.50;13.10;;;17.60;99.90;;;;;;4978072;28;20517;-63
2022/10/19 09:02:20;;;;;;;16.53;13.37;;;17.60;99.90;;;;;;4977414;28;20483;-64
2022/10/19 09:04:50;;;;;;;13.40;11.70;;;17.40;99.90;;;;;;4977821;28;20466;-62
2022/10/19 09:07:25;;;;;;;14.40;12.90;;;17.40;99.90;;;;;;4978023;28;20796;-62
2022/10/19 09:09:56;;;;;;;13.87;12.27;;;17.40;99.90;;;;;;4977760;28;20497;-63
2022/10/19 09:12:33;;;;;;;12.67;11.47;;;17.40;99.90;;;;;;4977658;28;20483;-62
2022/10/19 09:15:03;;;;;;;11.87;10.57;;;17.40;99.90;;;;;;4977183;28;20589;-62
2022/10/19 09:17:32;;;;;;;11.83;10.73;;;17.50;99.90;;;;;;4977528;28;20443;-63
2022/10/19 09:20:10;;;;;;;11.30;10.20;;;17.50;99.90;;;;;;4977470;28;20455;-62
2022/10/19 09:22:38;;;;;;;11.37;10.37;;;17.60;99.90;;;;;;4979578;28;20513;-63
2022/10/19 09:25:11;;;;;;;11.20;10.10;;;17.70;99.90;;;;;;4988626;28;20478;-63
2022/10/19 09:27:40;;;;;;;10.20;8.80;;;17.80;99.90;;;;;;4985669;28;20439;-64
2022/10/19 09:30:17;;;;;;;10.87;9.87;;;17.90;99.90;;;;;;4976992;28;20451;-63
2022/10/19 09:32:43;;;;;;;9.00;8.20;;;17.90;99.90;;;;;;4977331;28;20450;-63
2022/10/19 09:35:26;;;;;;;8.70;7.97;;;17.90;99.90;;;;;;4978000;28;20454;-63
2022/10/19 09:37:55;;;;;;;7.97;6.90;;;18.00;99.90;;;;;;4977237;28;20447;-62
2022/10/19 09:40:24;;;;;;;7.80;7.10;;;18.10;99.90;;;;;;4976974;28;20850;-62
2022/10/19 09:42:55;;;;;;;10.13;6.97;;;18.10;99.90;;;;;;4976813;28;20454;-62
2022/10/19 09:45:33;;;;;;;5.47;5.07;;;18.20;99.90;;;;;;4977646;28;20886;-62
2022/10/19 09:48:02;;;;;;;4.17;3.87;;;18.20;99.90;;;;;;4976812;28;20447;-63
2022/10/19 09:50:30;;;;;;;4.60;4.20;;;18.20;99.90;;;;;;4976587;28;20458;-63
2022/10/19 09:53:02;;;;;;;4.27;3.97;;;18.10;99.90;;;;;;4976366;28;20963;-63
2022/10/19 09:55:36;;;;;;;3.83;3.53;;;18.10;99.90;;;;;;4976362;28;20906;-63
2022/10/19 09:58:06;;;;;;;4.33;3.93;;;18.10;99.90;;;;;;4976599;28;20450;-63
2022/10/19 10:00:37;;;;;;;3.50;3.30;;;18.10;99.90;;;;;;4976465;28;20525;-63
2022/10/19 10:03:06;;;;;;;4.37;3.90;;;18.00;99.90;;;;;;4976539;28;20443;-62
2022/10/19 10:05:35;;;;;;;4.10;3.80;;;18.00;99.90;;;;;;4976469;28;20458;-64
2022/10/19 10:08:04;;;;;;;4.23;3.83;;;17.90;99.90;;;;;;4976416;28;20459;-62
2022/10/19 10:10:36;;;;;;;7.00;4.13;;;17.90;99.90;;;;;;4976204;28;20846;-63
2022/10/19 10:13:03;;;;;;;4.07;3.63;;;17.90;99.90;;;;;;4976496;28;20455;-63
2022/10/19 10:15:41;;;;;;;4.30;3.90;;;17.90;99.90;;;;;;4976357;28;20531;-63
2022/10/19 10:18:12;;;;;;;4.77;4.43;;;18.00;99.90;;;;;;4977012;28;20505;-63
2022/10/19 10:20:56;;;;;;;5.60;5.10;;;18.10;99.90;;;;;;4976177;28;20471;-63
2022/10/19 10:23:26;;;;;;;5.90;4.90;;;18.10;99.90;;;;;;4976148;28;20522;-62
2022/10/19 10:25:56;;;;;;;8.00;4.77;;;18.10;99.90;;;;;;4977064;28;20462;-62
2022/10/19 10:28:24;;;;;;;5.90;5.30;;;18.10;99.90;;;;;;4976118;28;20775;-63
2022/10/19 10:30:55;;;;;;;5.80;5.20;;;18.10;99.90;;;;;;4976015;28;20507;-63
2022/10/19 10:33:25;;;;;;;5.70;4.80;;;18.20;99.90;;;;;;4976035;28;20447;-63
2022/10/19 10:35:54;;;;;;;5.60;5.10;;;18.20;99.90;;;;;;4975739;28;20463;-63
2022/10/19 10:38:26;;;;;;;6.97;5.70;;;18.30;99.90;;;;;;4976041;28;20465;-62
2022/10/19 10:40:56;;;;;;;4.73;4.33;;;18.30;99.90;;;;;;4975761;28;20532;-63
2022/10/19 10:43:30;;;;;;;4.50;4.10;;;18.40;99.90;;;;;;4975783;28;20511;-63
2022/10/19 10:46:03;;;;;;;4.03;3.83;;;18.40;99.90;;;;;;4975701;28;20981;-63
2022/10/19 10:48:32;;;;;;;4.63;4.23;;;18.60;99.90;;;;;;4975767;28;20447;-62
2022/10/19 10:51:01;;;;;;;4.33;4.00;;;18.70;99.90;;;;;;4975671;28;20482;-62
2022/10/19 10:53:38;;;;;;;4.87;3.83;;;18.80;99.90;;;;;;4975648;28;20454;-62
2022/10/19 10:56:17;;;;;;;4.27;3.60;;;19.00;99.90;;;;;;4976493;28;20450;-63
2022/10/19 10:58:50;;;;;;;4.80;4.40;;;19.00;99.90;;;;;;4975885;28;20443;-63
2022/10/19 11:01:22;;;;;;;3.57;3.37;;;19.10;99.90;;;;;;4975195;28;20518;-64
2022/10/19 11:03:55;;;;;;;3.67;3.33;;;19.20;99.90;;;;;;4975493;28;20463;-64
2022/10/19 11:06:24;;;;;;;4.30;3.90;;;19.20;99.90;;;;;;4976827;28;20474;-62
2022/10/19 11:08:58;;;;;;;5.13;3.77;;;19.10;99.90;;;;;;4977663;28;20462;-63
2022/10/19 11:11:30;;;;;;;5.20;4.70;;;19.20;99.90;;;;;;4975076;28;20996;-63
2022/10/19 11:14:04;;;;;;;4.37;3.50;;;19.30;99.90;;;;;;4975558;28;20442;-63
2022/10/19 11:16:34;;;;;;;4.03;3.73;;;19.30;99.90;;;;;;4975484;28;20447;-64
2022/10/19 11:19:10;;;;;;;5.23;3.70;;;19.20;99.90;;;;;;4975278;28;20571;-63
2022/10/19 11:21:42;;;;;;;3.63;3.43;;;19.30;99.90;;;;;;4974945;28;20478;-63
2022/10/19 11:24:17;;;;;;;4.30;4.00;;;19.30;99.90;;;;;;4975276;28;20811;-63
2022/10/19 11:27:01;;;;;;;3.87;3.57;;;19.20;99.90;;;;;;4975416;28;20439;-63
2022/10/19 11:29:50;;;;;;;3.83;3.53;;;19.20;99.90;;;;;;4975291;28;20445;-63
2022/10/19 11:32:25;;;;;;;4.70;4.30;;;19.30;99.90;;;;;;4975601;28;20475;-63
2022/10/19 11:35:05;;;;;;;4.07;3.87;;;19.40;99.90;;;;;;4975146;28;20470;-63
2022/10/19 11:37:41;;;;;;;5.40;4.50;;;19.50;99.90;;;;;;4975323;28;20443;-63
2022/10/19 11:40:18;;;;;;;4.73;4.33;;;19.50;99.90;;;;;;4974605;28;20906;-63
2022/10/19 11:42:56;;;;;;;3.57;3.27;;;19.60;99.90;;;;;;4975179;28;20487;-63
2022/10/19 11:45:48;;;;;;;6.13;4.50;;;19.70;99.90;;;;;;4974987;28;20469;-63
2022/10/19 11:48:48;;;;;;;4.40;4.10;;;20.00;99.90;;;;;;4975244;28;20467;-63
2022/10/19 11:51:21;;;;;;;4.10;3.80;;;20.30;99.90;;;;;;4960651;28;21020;-63
2022/10/19 11:54:00;;;;;;;3.90;3.67;;;20.60;99.90;;;;;;4975265;28;20506;-63
2022/10/19 11:56:31;;;;;;;3.83;3.63;;;20.90;99.90;;;;;;4974920;28;20901;-63
2022/10/19 11:59:05;;;;;;;3.47;3.27;;;21.30;99.90;;;;;;4975552;28;20493;-63
2022/10/19 12:01:42;;;;;;;4.13;3.83;;;21.40;99.90;;;;;;4975655;28;20985;-64
2022/10/19 12:04:43;;;;;;;4.03;3.83;;;21.70;99.90;;;;;;4975640;28;20799;-64
2022/10/19 12:07:31;;;;;;;3.97;3.63;;;21.80;99.90;;;;;;4982325;28;20439;-63
2022/10/19 12:10:05;;;;;;;4.20;3.50;;;22.00;99.90;;;;;;4988359;28;20835;-63
2022/10/19 12:12:35;;;;;;;3.60;3.30;;;22.00;99.90;;;;;;4986685;28;20475;-64
2022/10/19 12:15:23;;;;;;;3.50;3.30;;;22.00;99.90;;;;;;4988738;28;20497;-63
2022/10/19 12:17:52;;;;;;;4.00;3.80;;;22.10;99.90;;;;;;4989074;28;20462;-63
2022/10/19 12:20:25;;;;;;;3.30;3.10;;;22.10;99.90;;;;;;4986272;28;20475;-63
2022/10/19 12:22:52;;;;;;;2.80;2.60;;;22.00;99.90;;;;;;4984115;28;20438;-63
2022/10/19 12:25:20;;;;;;;4.70;3.27;;;21.90;99.90;;;;;;4986041;28;20487;-63
2022/10/19 12:27:50;;;;;;;2.87;2.77;;;21.90;99.90;;;;;;4976649;28;20454;-63
2022/10/19 12:30:19;;;;;;;2.80;2.60;;;21.90;99.90;;;;;;4975011;28;20458;-63
2022/10/19 12:32:56;;;;;;;3.30;3.13;;;22.00;99.90;;;;;;4974772;28;20458;-63
2022/10/19 12:35:38;;;;;;;3.03;2.70;;;21.90;99.90;;;;;;4977457;28;20526;-62
2022/10/19 12:38:10;;;;;;;3.43;2.90;;;22.00;99.90;;;;;;4978481;28;20513;-64
2022/10/19 12:40:43;;;;;;;5.50;3.57;;;22.10;99.90;;;;;;4978136;28;20526;-63
2022/10/19 12:43:15;;;;;;;3.47;3.17;;;22.10;99.90;;;;;;4978175;28;20442;-63
2022/10/19 12:45:46;;;;;;;4.00;3.70;;;22.20;99.90;;;;;;4978795;28;20463;-63
2022/10/19 12:48:24;;;;;;;4.50;3.00;;;22.20;99.90;;;;;;4978244;28;20468;-63
2022/10/19 12:51:10;;;;;;;3.50;3.30;;;22.20;99.90;;;;;;4978667;28;20505;-62
2022/10/19 12:53:39;;;;;;;5.00;3.00;;;22.20;99.90;;;;;;4978239;28;20446;-63
2022/10/19 12:56:09;;;;;;;3.13;3.00;;;22.20;99.90;;;;;;4978016;28;20455;-64
2022/10/19 12:58:45;;;;;;;3.10;2.90;;;22.20;99.90;;;;;;4977950;28;20459;-64
2022/10/19 13:01:18;;;;;;;3.73;3.50;;;22.20;99.90;;;;;;4977432;28;20490;-64
2022/10/19 13:03:45;;;;;;;5.17;3.47;;;22.10;99.90;;;;;;4978071;28;20493;-64
2022/10/19 13:06:16;;;;;;;3.60;3.40;;;22.10;99.90;;;;;;4978425;28;20482;-63
2022/10/19 13:08:47;;;;;;;4.10;3.70;;;22.10;99.90;;;;;;4977690;28;20442;-63
2022/10/19 13:11:15;;;;;;;4.53;3.70;;;22.00;99.90;;;;;;4977369;28;20475;-62
2022/10/19 13:13:55;;;;;;;4.00;3.70;;;22.20;99.90;;;;;;4977820;28;20465;-63
2022/10/19 13:16:57;;;;;;;4.03;3.73;;;22.10;99.90;;;;;;4977555;28;20534;-63
2022/10/19 13:19:24;;;;;;;3.93;3.73;;;22.20;99.90;;;;;;4975822;28;20862;-63
2022/10/19 13:22:24;;;;;;;3.10;2.97;;;22.20;99.90;;;;;;4977913;28;20502;-63
2022/10/19 13:25:18;;;;;;;4.63;3.50;;;22.30;99.90;;;;;;4977692;28;20969;-63
2022/10/19 13:27:45;;;;;;;3.93;3.63;;;22.30;99.90;;;;;;4977580;28;20438;-63
2022/10/19 13:30:45;;;;;;;3.70;3.40;;;22.20;99.90;;;;;;4978268;28;20525;-62
2022/10/19 13:33:43;;;;;;;4.10;3.80;;;22.10;99.90;;;;;;4976887;28;20462;-63
2022/10/19 13:36:11;;;;;;;4.63;4.33;;;22.00;99.90;;;;;;4977708;28;20447;-63
2022/10/19 13:38:39;;;;;;;3.70;3.50;;;22.00;99.90;;;;;;4993538;28;20435;-63
2022/10/19 13:41:11;;;;;;;4.30;3.97;;;22.10;99.90;;;;;;4996461;28;20478;-64
2022/10/19 13:43:49;;;;;;;3.70;3.37;;;22.20;99.90;;;;;;4997996;28;20446;-64
2022/10/19 13:46:18;;;;;;;4.10;3.07;;;22.30;99.90;;;;;;4991485;28;20466;-64
2022/10/19 13:49:11;;;;;;;4.30;3.90;;;22.20;99.90;;;;;;4983410;28;20446;-63
2022/10/19 13:51:47;;;;;;;4.10;3.63;;;22.30;99.90;;;;;;4978561;28;20478;-63
2022/10/19 13:54:27;;;;;;;4.10;3.90;;;22.30;99.90;;;;;;4978530;28;20438;-63
2022/10/19 13:57:09;;;;;;;4.40;2.83;;;22.40;99.90;;;;;;4977235;28;20443;-63
2022/10/19 14:00:03;;;;;;;5.30;3.07;;;22.40;99.90;;;;;;4977071;28;20438;-63
2022/10/19 14:03:09;;;;;;;3.50;3.20;;;22.40;99.90;;;;;;4983675;28;20494;-63
2022/10/19 14:06:02;;;;;;;3.13;2.93;;;22.50;99.90;;;;;;4993634;28;20482;-63
2022/10/19 14:08:50;;;;;;;12.57;3.37;;;22.60;99.90;;;;;;4969498;28;20474;-63
2022/10/19 14:11:19;;;;;;;3.80;3.23;;;22.60;99.90;;;;;;4995733;28;20498;-63
2022/10/19 14:13:47;;;;;;;3.80;3.50;;;22.60;99.90;;;;;;4990242;28;20454;-63
2022/10/19 14:16:20;;;;;;;5.33;4.20;;;22.50;99.90;;;;;;4978607;28;20451;-63
2022/10/19 14:18:54;;;;;;;3.60;3.30;;;22.50;99.90;;;;;;4978443;28;20498;-64
2022/10/19 14:21:31;;;;;;;2.93;2.73;;;22.40;99.90;;;;;;4977006;28;20566;-64
2022/10/19 14:23:58;;;;;;;3.20;3.00;;;22.40;99.90;;;;;;4977252;28;20518;-63
2022/10/19 14:26:28;;;;;;;5.07;3.10;;;22.50;99.90;;;;;;4976428;28;20509;-64
2022/10/19 14:28:57;;;;;;;3.40;3.20;;;22.50;99.90;;;;;;4975996;28;20793;-63
2022/10/19 14:31:34;;;;;;;2.97;2.63;;;22.50;99.90;;;;;;4976547;28;20510;-62
2022/10/19 14:34:03;;;;;;;3.40;3.20;;;22.20;99.90;;;;;;4975721;28;20442;-63
2022/10/19 14:36:36;;;;;;;3.10;3.00;;;21.90;99.90;;;;;;4976262;28;20525;-63
2022/10/19 14:39:04;;;;;;;3.60;3.10;;;21.70;99.90;;;;;;4976191;28;20502;-63
2022/10/19 14:41:34;;;;;;;3.97;3.50;;;21.50;99.90;;;;;;4975582;28;20478;-63
2022/10/19 14:44:01;;;;;;;3.27;2.97;;;21.50;99.90;;;;;;4975868;28;20458;-63
2022/10/19 14:46:29;;;;;;;3.43;3.23;;;21.30;99.90;;;;;;4975858;28;20843;-63
2022/10/19 14:49:00;;;;;;;3.67;3.40;;;21.20;99.90;;;;;;4975627;28;20888;-63
2022/10/19 14:51:31;;;;;;;3.47;3.17;;;21.10;99.90;;;;;;4975627;28;20475;-63
2022/10/19 14:54:04;;;;;;;5.33;3.60;;;21.00;99.90;;;;;;4976070;28;20443;-63
2022/10/19 14:56:34;;;;;;;3.73;3.53;;;20.80;99.90;;;;;;4975178;28;20439;-64
2022/10/19 14:59:04;;;;;;;3.90;3.50;;;20.60;99.90;;;;;;4975948;28;20443;-64
2022/10/19 15:01:31;;;;;;;3.37;3.17;;;20.40;99.90;;;;;;4978003;28;20483;-64
2022/10/19 15:03:57;;;;;;;5.40;3.20;;;20.30;99.90;;;;;;4976129;28;20455;-64
2022/10/19 15:06:28;;;;;;;3.30;3.10;;;20.20;99.90;;;;;;4975533;28;20553;-63
2022/10/19 15:08:57;;;;;;;3.93;3.73;;;20.10;99.90;;;;;;4976444;28;20463;-63
2022/10/19 15:11:28;;;;;;;3.83;3.27;;;20.00;99.90;;;;;;4975305;28;20982;-62
2022/10/19 15:13:58;;;;;;;3.47;3.27;;;19.90;99.90;;;;;;4975640;28;20434;-63
2022/10/19 15:16:30;;;;;;;3.73;3.53;;;19.90;99.90;;;;;;4975533;28;20823;-62
2022/10/19 15:19:01;;;;;;;3.97;3.30;;;19.80;99.90;;;;;;4974846;28;20455;-63
2022/10/19 15:21:28;;;;;;;20.23;4.87;;;19.80;99.90;;;;;;4983517;28;20485;-63
2022/10/19 15:24:05;;;;;;;3.27;3.07;;;19.70;99.90;;;;;;4986266;28;20455;-63
2022/10/19 15:26:33;;;;;;;3.43;3.13;;;19.70;99.90;;;;;;4975966;28;20553;-63
2022/10/19 15:29:08;;;;;;;4.67;4.27;;;19.60;99.90;;;;;;4975367;28;20459;-63
2022/10/19 15:31:35;;;;;;;3.60;3.30;;;19.40;99.90;;;;;;4975180;28;20600;-62
2022/10/19 15:34:04;;;;;;;4.10;3.70;;;19.40;99.90;;;;;;4976740;28;20517;-63
2022/10/19 15:36:32;;;;;;;3.60;3.40;;;19.30;99.90;;;;;;4975259;28;20451;-63
2022/10/19 15:39:01;;;;;;;3.73;3.30;;;19.20;99.90;;;;;;4975139;28;20455;-63
2022/10/19 15:41:29;;;;;;;3.50;3.20;;;19.20;99.90;;;;;;4975151;28;20500;-63
2022/10/19 15:43:59;;;;;;;5.67;3.57;;;19.10;99.90;;;;;;4975274;28;20474;-63
2022/10/19 15:46:31;;;;;;;7.13;3.93;;;19.10;99.90;;;;;;4975117;28;20473;-64
2022/10/19 15:49:11;;;;;;;4.23;3.93;;;19.10;99.90;;;;;;4974920;28;20501;-63
2022/10/19 15:51:45;;;;;;;4.03;3.73;;;18.90;99.90;;;;;;4975099;28;20533;-62
2022/10/19 15:54:14;;;;;;;4.87;4.40;;;18.80;99.90;;;;;;4975149;28;20798;-63
2022/10/19 15:56:42;;;;;;;5.40;4.93;;;18.80;99.90;;;;;;4975178;28;20451;-64
2022/10/19 15:59:16;;;;;;;3.90;3.60;;;18.70;99.90;;;;;;4975181;28;20455;-63
2022/10/19 16:01:43;;;;;;;4.83;4.33;;;18.70;99.90;;;;;;4974886;28;20492;-63
2022/10/19 16:04:10;;;;;;;4.40;4.10;;;18.60;99.90;;;;;;4974952;28;20490;-63
2022/10/19 16:06:40;;;;;;;5.63;5.13;;;18.50;99.90;;;;;;4975965;28;20524;-64
2022/10/19 16:09:07;;;;;;;5.20;4.70;;;18.50;99.90;;;;;;4979096;28;20481;-63
2022/10/19 16:11:35;;;;;;;5.00;4.60;;;18.40;99.90;;;;;;4979066;28;20478;-63
2022/10/19 16:14:02;;;;;;;4.50;4.20;;;18.40;99.90;;;;;;4978538;28;20458;-63
2022/10/19 16:16:31;;;;;;;5.23;4.73;;;18.40;99.90;;;;;;4978497;28;20447;-64
2022/10/19 16:18:59;;;;;;;6.13;5.73;;;18.30;99.90;;;;;;4978562;28;20459;-62
2022/10/19 16:21:29;;;;;;;5.50;5.10;;;18.30;99.90;;;;;;4978395;28;20479;-63
2022/10/19 16:23:55;;;;;;;10.00;5.07;;;18.30;99.90;;;;;;4978946;28;20996;-63
2022/10/19 16:26:24;;;;;;;5.27;4.77;;;18.20;99.90;;;;;;4978418;28;20474;-62
2022/10/19 16:28:50;;;;;;;6.03;5.20;;;18.20;99.90;;;;;;4978948;28;20565;-63
2022/10/19 16:31:18;;;;;;;5.80;5.40;;;18.10;99.90;;;;;;4978170;28;21060;-63
2022/10/19 16:33:46;;;;;;;6.17;5.20;;;18.10;99.90;;;;;;4979098;28;20459;-63
2022/10/19 16:36:13;;;;;;;6.17;5.77;;;18.10;99.90;;;;;;4979896;28;20478;-62
2022/10/19 16:38:39;;;;;;;5.83;5.43;;;18.10;99.90;;;;;;4978429;28;20454;-62
2022/10/19 16:41:08;;;;;;;9.57;5.70;;;18.00;99.90;;;;;;4978094;28;20533;-63
2022/10/19 16:43:35;;;;;;;6.13;5.73;;;18.00;99.90;;;;;;4977759;28;20951;-63
2022/10/19 16:46:02;;;;;;;6.87;6.30;;;17.90;99.90;;;;;;4977742;28;21008;-63
2022/10/19 16:48:29;;;;;;;5.97;5.37;;;17.90;99.90;;;;;;4978127;28;20458;-63
2022/10/19 16:51:22;;;;;;;7.10;6.40;;;17.90;99.90;;;;;;4977834;28;20479;-63
2022/10/19 16:53:50;;;;;;;6.90;6.30;;;17.90;99.90;;;;;;4977964;28;20443;-63
2022/10/19 16:56:17;;;;;;;7.70;7.07;;;17.80;99.90;;;;;;4978059;28;20493;-63
2022/10/19 16:58:44;;;;;;;6.90;6.40;;;17.80;99.90;;;;;;4977914;28;20872;-62